createdAt,value
2017-10-16T00:02:15.969Z,8.70
2017-10-16T00:04:44.997Z,8.30
2017-10-16T00:07:13.247Z,7.77
2017-10-16T00:09:42.268Z,8.90
2017-10-16T00:12:11.682Z,9.20
2017-10-16T00:14:39.932Z,10.90
2017-10-16T00:17:08.178Z,10.90
2017-10-16T00:19:36.454Z,10.97
2017-10-16T00:22:04.706Z,12.37
2017-10-16T00:24:32.958Z,11.00
2017-10-16T00:27:01.235Z,11.40
2017-10-16T00:29:29.482Z,11.63
2017-10-16T00:31:57.739Z,10.87
2017-10-16T00:34:26.553Z,11.73
2017-10-16T00:36:54.802Z,11.50
2017-10-16T00:39:23.065Z,10.73
2017-10-16T00:41:51.342Z,12.07
2017-10-16T00:44:19.601Z,11.30
2017-10-16T00:46:47.849Z,11.40
2017-10-16T00:49:16.456Z,11.73
2017-10-16T00:51:44.706Z,12.83
2017-10-16T00:54:12.962Z,11.57
2017-10-16T00:56:41.487Z,12.50
2017-10-16T00:59:09.746Z,12.10
2017-10-16T01:01:37.998Z,10.07
2017-10-16T01:04:07.039Z,11.07
2017-10-16T01:06:35.354Z,11.23
2017-10-16T01:09:03.607Z,10.20
2017-10-16T01:11:31.884Z,10.70
2017-10-16T01:14:00.904Z,10.50
2017-10-16T01:16:29.154Z,11.90
2017-10-16T01:18:57.818Z,10.50
2017-10-16T01:21:26.074Z,10.60
2017-10-16T01:23:54.326Z,10.50
2017-10-16T01:26:22.602Z,9.63
2017-10-16T01:28:51.607Z,9.30
2017-10-16T01:31:20.623Z,9.73
2017-10-16T01:33:48.887Z,9.60
2017-10-16T01:36:17.138Z,9.53
2017-10-16T01:38:45.386Z,12.13
2017-10-16T01:41:13.835Z,10.10
2017-10-16T01:43:42.081Z,10.40
2017-10-16T01:46:10.341Z,11.83
2017-10-16T01:48:38.605Z,7.83
2017-10-16T01:51:07.085Z,9.40
2017-10-16T01:53:35.334Z,9.70
2017-10-16T01:56:03.606Z,10.60
2017-10-16T01:58:31.871Z,10.00
2017-10-16T02:01:00.122Z,8.90
2017-10-16T02:03:28.646Z,9.10
2017-10-16T02:05:56.890Z,9.97
2017-10-16T02:08:25.151Z,11.07
2017-10-16T02:10:53.430Z,10.80
2017-10-16T02:13:22.442Z,9.93
2017-10-16T02:15:50.753Z,8.90
2017-10-16T02:18:19.026Z,9.93
2017-10-16T02:20:47.278Z,9.20
2017-10-16T02:23:15.527Z,7.43
2017-10-16T02:25:44.366Z,8.57
2017-10-16T02:28:12.670Z,9.87
2017-10-16T02:30:40.922Z,8.67
2017-10-16T02:33:09.493Z,7.87
2017-10-16T02:35:37.738Z,8.40
2017-10-16T02:38:06.750Z,9.10
2017-10-16T02:40:35.014Z,8.43
2017-10-16T02:43:04.026Z,8.00
2017-10-16T02:45:32.272Z,7.23
2017-10-16T02:48:01.623Z,8.77
2017-10-16T02:50:30.638Z,8.63
2017-10-16T02:52:59.254Z,9.77
2017-10-16T02:55:28.303Z,8.70
2017-10-16T02:57:56.546Z,9.00
2017-10-16T03:00:24.790Z,8.70
2017-10-16T03:02:53.062Z,8.80
2017-10-16T03:05:21.408Z,9.03
2017-10-16T03:07:49.811Z,8.70
2017-10-16T03:10:18.280Z,9.13
2017-10-16T03:12:46.530Z,9.80
2017-10-16T03:15:14.774Z,12.57
2017-10-16T03:17:43.814Z,10.70
2017-10-16T03:20:12.062Z,9.50
2017-10-16T03:22:40.314Z,9.13
2017-10-16T03:25:08.582Z,9.27
2017-10-16T03:27:36.828Z,10.53
2017-10-16T03:30:05.075Z,9.40
2017-10-16T03:32:33.422Z,10.60
2017-10-16T03:35:02.443Z,10.67
2017-10-16T03:37:30.689Z,10.27
2017-10-16T03:39:59.730Z,10.57
2017-10-16T03:42:27.994Z,12.40
2017-10-16T03:44:56.245Z,11.43
2017-10-16T03:47:24.526Z,10.77
2017-10-16T03:49:53.543Z,11.23
2017-10-16T03:52:21.794Z,10.80
2017-10-16T03:54:51.546Z,11.10
2017-10-16T03:57:19.800Z,10.13
2017-10-16T03:59:48.058Z,12.23
2017-10-16T04:02:17.099Z,13.07
2017-10-16T04:04:45.359Z,12.00
2017-10-16T04:07:13.610Z,11.93
2017-10-16T04:09:41.885Z,12.17
2017-10-16T04:12:10.902Z,13.50
2017-10-16T04:14:39.158Z,11.07
2017-10-16T04:17:08.346Z,11.27
2017-10-16T04:19:36.598Z,11.20
2017-10-16T04:22:04.845Z,11.53
2017-10-16T04:24:33.120Z,12.20
2017-10-16T04:27:01.374Z,12.20
2017-10-16T04:29:29.626Z,11.60
2017-10-16T04:31:58.666Z,11.00
2017-10-16T04:34:26.922Z,12.47
2017-10-16T04:36:55.170Z,12.03
2017-10-16T04:39:23.650Z,13.17
2017-10-16T04:41:52.099Z,12.20
2017-10-16T04:44:20.343Z,11.27
2017-10-16T04:46:48.618Z,12.07
2017-10-16T04:49:16.879Z,11.57
2017-10-16T04:51:45.886Z,10.40
2017-10-16T04:54:14.166Z,11.73
2017-10-16T04:56:42.835Z,12.77
2017-10-16T04:59:11.094Z,11.23
2017-10-16T05:01:40.384Z,10.90
2017-10-16T05:04:08.637Z,10.80
2017-10-16T05:06:36.890Z,14.03
2017-10-16T05:09:05.167Z,11.70
2017-10-16T05:11:33.414Z,11.90
2017-10-16T05:14:02.428Z,11.20
2017-10-16T05:16:30.707Z,11.03
2017-10-16T05:18:58.965Z,9.80
2017-10-16T05:21:27.967Z,10.80
2017-10-16T05:23:56.578Z,10.13
2017-10-16T05:26:24.882Z,13.40
2017-10-16T05:28:53.135Z,12.50
2017-10-16T05:31:21.418Z,12.90
2017-10-16T05:33:49.662Z,12.00
2017-10-16T05:36:17.921Z,13.00
2017-10-16T05:38:46.963Z,12.90
2017-10-16T05:41:15.982Z,11.97
2017-10-16T05:43:44.346Z,11.20
2017-10-16T05:46:12.734Z,12.50
2017-10-16T05:48:40.987Z,12.23
2017-10-16T05:51:09.243Z,11.40
2017-10-16T05:53:37.607Z,11.87
2017-10-16T05:56:06.617Z,12.73
2017-10-16T05:58:35.074Z,11.47
2017-10-16T06:01:04.109Z,12.33
2017-10-16T06:03:32.366Z,12.17
2017-10-16T06:06:00.619Z,12.00
2017-10-16T06:08:29.990Z,11.47
2017-10-16T06:10:58.251Z,12.13
2017-10-16T06:13:26.498Z,11.53
2017-10-16T06:15:54.773Z,12.57
2017-10-16T06:18:23.024Z,13.70
2017-10-16T06:20:52.042Z,13.23
2017-10-16T06:23:20.319Z,13.00
2017-10-16T06:25:48.578Z,12.73
2017-10-16T06:28:16.826Z,13.17
2017-10-16T06:30:45.269Z,12.80
2017-10-16T06:33:13.526Z,13.77
2017-10-16T06:35:41.779Z,11.70
2017-10-16T06:38:10.050Z,13.30
2017-10-16T06:40:39.070Z,12.70
2017-10-16T06:43:07.322Z,13.83
2017-10-16T06:45:35.592Z,10.50
2017-10-16T06:48:03.840Z,11.20
2017-10-16T06:50:32.101Z,12.50
2017-10-16T06:53:00.845Z,11.83
2017-10-16T06:55:29.085Z,12.50
2017-10-16T06:57:57.338Z,13.07
2017-10-16T07:00:25.758Z,13.80
2017-10-16T07:02:54.020Z,12.63
2017-10-16T07:05:22.258Z,14.03
2017-10-16T07:07:50.534Z,13.77
2017-10-16T07:10:18.787Z,14.43
2017-10-16T07:12:47.831Z,13.80
2017-10-16T07:15:16.937Z,14.40
2017-10-16T07:17:45.190Z,14.83
2017-10-16T07:20:13.458Z,15.77
2017-10-16T07:22:41.734Z,14.73
2017-10-16T07:25:09.982Z,14.43
2017-10-16T07:27:38.237Z,16.07
2017-10-16T07:30:06.506Z,14.90
2017-10-16T07:32:34.759Z,15.37
2017-10-16T07:35:03.014Z,15.13
2017-10-16T07:37:31.574Z,17.03
2017-10-16T07:39:59.845Z,15.67
2017-10-16T07:42:28.858Z,15.43
2017-10-16T07:44:57.126Z,16.30
2017-10-16T07:47:25.379Z,15.23
2017-10-16T07:49:53.634Z,18.77
2017-10-16T07:52:21.912Z,14.97
2017-10-16T07:54:50.162Z,16.23
2017-10-16T07:57:18.421Z,16.13
2017-10-16T07:59:47.184Z,15.80
2017-10-16T08:02:16.387Z,16.10
2017-10-16T08:04:45.402Z,15.33
2017-10-16T08:07:13.683Z,15.73
2017-10-16T08:09:41.934Z,16.60
2017-10-16T08:12:10.956Z,14.40
2017-10-16T08:14:39.244Z,15.60
2017-10-16T08:17:07.499Z,15.43
2017-10-16T08:19:35.744Z,15.97
2017-10-16T08:22:04.195Z,15.60
2017-10-16T08:24:32.449Z,16.67
2017-10-16T08:27:00.694Z,16.53
2017-10-16T08:29:29.743Z,16.17
2017-10-16T08:31:57.986Z,16.03
2017-10-16T08:34:26.233Z,16.10
2017-10-16T08:36:54.514Z,16.70
2017-10-16T08:39:23.536Z,16.40
2017-10-16T08:41:51.830Z,16.70
2017-10-16T08:44:20.503Z,16.40
2017-10-16T08:46:49.126Z,16.30
2017-10-16T08:49:17.378Z,17.10
2017-10-16T08:51:45.653Z,17.63
2017-10-16T08:54:16.113Z,18.10
2017-10-16T08:56:44.376Z,17.47
2017-10-16T08:59:12.643Z,17.70
2017-10-16T09:01:40.889Z,17.53
2017-10-16T09:04:09.582Z,16.93
2017-10-16T09:06:38.123Z,18.73
2017-10-16T09:09:06.377Z,17.87
2017-10-16T09:11:34.626Z,18.00
2017-10-16T09:14:02.906Z,18.10
2017-10-16T09:16:31.158Z,19.27
2017-10-16T09:18:59.410Z,17.83
2017-10-16T09:21:28.450Z,18.27
2017-10-16T09:23:56.706Z,16.53
2017-10-16T09:26:24.961Z,19.00
2017-10-16T09:28:54.186Z,17.60
2017-10-16T09:31:22.442Z,16.13
2017-10-16T09:33:51.466Z,15.83
2017-10-16T09:36:19.814Z,16.00
2017-10-16T09:38:48.842Z,14.40
2017-10-16T09:41:17.090Z,15.00
2017-10-16T09:43:45.437Z,15.50
2017-10-16T09:46:13.690Z,15.47
2017-10-16T09:48:41.938Z,14.60
2017-10-16T09:51:10.747Z,14.47
2017-10-16T09:53:38.993Z,18.47
2017-10-16T09:56:07.252Z,34.73
2017-10-16T09:58:35.528Z,30.23
2017-10-16T10:01:04.558Z,38.43
2017-10-16T10:03:32.806Z,44.73
2017-10-16T10:06:01.313Z,29.03
2017-10-16T10:08:30.553Z,27.80
2017-10-16T10:10:58.805Z,24.53
2017-10-16T10:13:27.221Z,21.17
2017-10-16T10:15:55.474Z,18.60
2017-10-16T10:18:23.719Z,19.40
2017-10-16T10:20:51.986Z,18.43
2017-10-16T10:23:20.250Z,17.60
2017-10-16T10:25:49.403Z,17.80
2017-10-16T10:28:17.662Z,17.97
2017-10-16T10:30:45.914Z,16.83
2017-10-16T10:33:14.162Z,17.97
2017-10-16T10:35:42.623Z,17.10
2017-10-16T10:38:10.882Z,18.30
2017-10-16T10:40:39.138Z,18.17
2017-10-16T10:43:07.409Z,19.50
2017-10-16T10:45:35.670Z,18.60
2017-10-16T10:48:03.917Z,23.20
2017-10-16T10:50:32.410Z,21.97
2017-10-16T10:53:01.428Z,20.57
2017-10-16T10:55:29.678Z,23.70
2017-10-16T10:57:58.211Z,22.33
2017-10-16T11:00:26.463Z,21.90
2017-10-16T11:02:54.714Z,23.33
2017-10-16T11:05:23.777Z,17.27
2017-10-16T11:07:52.298Z,18.23
2017-10-16T11:10:21.321Z,18.87
2017-10-16T11:12:49.601Z,17.40
2017-10-16T11:15:17.850Z,16.83
2017-10-16T11:17:46.128Z,18.50
2017-10-16T11:20:15.569Z,17.10
2017-10-16T11:22:43.829Z,17.33
2017-10-16T11:25:12.075Z,16.43
2017-10-16T11:27:40.352Z,16.10
2017-10-16T11:30:08.604Z,16.63
2017-10-16T11:32:36.862Z,13.63
2017-10-16T11:35:05.898Z,14.07
2017-10-16T11:37:34.150Z,13.17
2017-10-16T11:40:02.405Z,12.73
2017-10-16T11:42:30.847Z,14.17
2017-10-16T11:44:59.094Z,13.73
2017-10-16T11:47:27.351Z,13.60
2017-10-16T11:49:55.622Z,12.40
2017-10-16T11:52:23.870Z,12.50
2017-10-16T11:54:52.125Z,12.93
2017-10-16T11:57:21.292Z,14.20
2017-10-16T11:59:49.653Z,13.70
2017-10-16T12:02:17.886Z,11.77
2017-10-16T12:04:46.471Z,13.50
2017-10-16T12:07:14.729Z,10.87
2017-10-16T12:09:43.931Z,11.57
2017-10-16T12:12:12.977Z,11.13
2017-10-16T12:14:41.226Z,12.33
2017-10-16T12:17:09.477Z,12.00
2017-10-16T12:19:38.510Z,9.83
2017-10-16T12:22:06.762Z,7.10
2017-10-16T12:24:35.020Z,6.43
2017-10-16T12:27:03.608Z,8.43
2017-10-16T12:29:32.618Z,6.70
2017-10-16T12:32:00.854Z,7.10
2017-10-16T12:34:29.134Z,8.50
2017-10-16T12:36:57.462Z,9.67
2017-10-16T12:39:25.705Z,9.87
2017-10-16T12:41:54.741Z,8.93
2017-10-16T12:44:22.982Z,8.77
2017-10-16T12:46:51.230Z,14.83
2017-10-16T12:49:19.878Z,17.27
2017-10-16T12:51:48.137Z,12.77
2017-10-16T12:54:16.390Z,12.10
2017-10-16T12:56:44.693Z,9.90
2017-10-16T12:59:12.937Z,8.73
2017-10-16T13:01:41.258Z,9.93
2017-10-16T13:04:09.846Z,10.30
2017-10-16T13:06:38.107Z,11.37
2017-10-16T13:09:06.362Z,10.90
2017-10-16T13:11:35.293Z,7.40
2017-10-16T13:14:03.547Z,6.37
2017-10-16T13:16:31.793Z,6.17
2017-10-16T13:19:00.062Z,6.03
2017-10-16T13:21:28.315Z,5.13
2017-10-16T13:23:56.553Z,5.50
2017-10-16T13:26:24.822Z,5.70
2017-10-16T13:28:53.070Z,5.90
2017-10-16T13:31:21.314Z,5.90
2017-10-16T13:33:50.085Z,6.00
2017-10-16T13:36:18.341Z,5.90
2017-10-16T13:38:46.570Z,6.10
2017-10-16T13:41:14.846Z,5.53
2017-10-16T13:43:43.089Z,6.60
2017-10-16T13:46:11.334Z,6.53
2017-10-16T13:48:40.370Z,6.67
2017-10-16T13:51:08.622Z,5.00
2017-10-16T13:53:36.866Z,5.90
2017-10-16T13:56:06.425Z,6.37
2017-10-16T13:58:34.686Z,6.77
2017-10-16T14:01:02.938Z,7.00
2017-10-16T14:03:31.210Z,6.27
2017-10-16T14:06:00.227Z,6.50
2017-10-16T14:08:28.466Z,6.60
2017-10-16T14:10:56.954Z,6.20
2017-10-16T14:13:26.025Z,6.37
2017-10-16T14:15:54.278Z,6.03
2017-10-16T14:18:22.766Z,6.17
2017-10-16T14:20:51.018Z,6.60
2017-10-16T14:23:19.257Z,5.87
2017-10-16T14:25:47.538Z,5.90
2017-10-16T14:28:16.546Z,5.83
2017-10-16T14:30:45.562Z,5.93
2017-10-16T14:33:13.830Z,6.50
2017-10-16T14:35:42.070Z,6.20
2017-10-16T14:38:11.082Z,7.23
2017-10-16T14:40:39.704Z,7.17
2017-10-16T14:43:07.942Z,5.87
2017-10-16T14:45:36.193Z,5.70
2017-10-16T14:48:04.462Z,5.10
2017-10-16T14:50:32.707Z,6.30
2017-10-16T14:53:00.947Z,5.90
2017-10-16T14:55:29.977Z,5.87
2017-10-16T14:57:58.217Z,5.50
2017-10-16T15:00:26.462Z,5.30
2017-10-16T15:02:54.799Z,6.13
2017-10-16T15:05:23.063Z,5.00
2017-10-16T15:07:51.289Z,5.10
2017-10-16T15:10:21.741Z,5.50
2017-10-16T15:12:50.754Z,6.30
2017-10-16T15:15:19.165Z,6.40
2017-10-16T15:17:47.434Z,6.83
2017-10-16T15:20:15.852Z,6.10
2017-10-16T15:22:44.111Z,6.40
2017-10-16T15:25:12.437Z,6.13
2017-10-16T15:27:41.446Z,6.10
2017-10-16T15:30:09.686Z,6.00
2017-10-16T15:32:37.962Z,7.17
2017-10-16T15:35:06.206Z,6.70
2017-10-16T15:37:34.453Z,6.10
2017-10-16T15:40:02.729Z,6.43
2017-10-16T15:42:30.974Z,7.27
2017-10-16T15:44:59.983Z,6.30
2017-10-16T15:47:29.188Z,6.83
2017-10-16T15:49:57.445Z,7.07
2017-10-16T15:52:25.689Z,7.43
2017-10-16T15:54:53.953Z,8.20
2017-10-16T15:57:22.211Z,8.87
2017-10-16T15:59:50.456Z,9.10
2017-10-16T16:02:18.730Z,9.60
2017-10-16T16:04:46.983Z,9.50
2017-10-16T16:07:15.362Z,10.20
2017-10-16T16:09:43.900Z,9.20
2017-10-16T16:12:12.145Z,10.37
2017-10-16T16:14:41.268Z,10.23
2017-10-16T16:17:12.711Z,9.00
2017-10-16T16:19:42.326Z,8.90
2017-10-16T16:22:12.518Z,9.20
2017-10-16T16:24:43.016Z,9.60
2017-10-16T16:27:12.246Z,10.27
2017-10-16T16:29:41.569Z,10.30
2017-10-16T16:32:10.286Z,10.70
2017-10-16T16:34:41.095Z,10.10
2017-10-16T16:37:12.314Z,10.53
2017-10-16T16:39:41.507Z,9.20
2017-10-16T16:42:10.048Z,10.43
2017-10-16T16:44:39.172Z,14.40
2017-10-16T16:47:07.418Z,13.33
2017-10-16T16:49:37.899Z,14.23
2017-10-16T16:52:06.553Z,10.60
2017-10-16T16:54:34.807Z,10.90
2017-10-16T16:57:03.064Z,11.33
2017-10-16T16:59:31.362Z,11.03
2017-10-16T17:02:01.827Z,10.70
2017-10-16T17:04:30.074Z,11.33
2017-10-16T17:06:58.392Z,11.50
2017-10-16T17:09:26.618Z,11.20
2017-10-16T17:11:55.039Z,10.70
2017-10-16T17:14:23.397Z,11.30
2017-10-16T17:16:51.671Z,11.43
2017-10-16T17:19:19.918Z,10.50
2017-10-16T17:21:48.198Z,11.93
2017-10-16T17:24:16.458Z,11.60
2017-10-16T17:26:44.715Z,11.87
2017-10-16T17:29:13.778Z,12.97
2017-10-16T17:31:42.046Z,12.63
2017-10-16T17:34:10.285Z,13.30
2017-10-16T17:36:38.642Z,14.37
2017-10-16T17:39:06.903Z,14.70
2017-10-16T17:41:35.176Z,14.13
2017-10-16T17:44:03.730Z,11.70
2017-10-16T17:46:32.031Z,11.90
2017-10-16T17:49:00.274Z,11.77
2017-10-16T17:51:28.550Z,14.33
2017-10-16T17:53:56.834Z,11.00
2017-10-16T17:56:25.106Z,12.50
2017-10-16T17:58:53.427Z,12.80
2017-10-16T18:01:21.690Z,12.63
2017-10-16T18:03:49.938Z,12.07
2017-10-16T18:06:18.252Z,12.90
2017-10-16T18:08:46.498Z,13.20
2017-10-16T18:11:14.754Z,12.93
2017-10-16T18:13:43.034Z,12.57
2017-10-16T18:16:12.283Z,13.80
2017-10-16T18:18:40.646Z,12.53
2017-10-16T18:21:09.426Z,14.53
2017-10-16T18:23:42.650Z,13.33
2017-10-16T18:26:15.044Z,15.83
2017-10-16T18:28:44.070Z,16.80
2017-10-16T18:31:12.337Z,16.17
2017-10-16T18:33:40.614Z,17.23
2017-10-16T18:36:08.873Z,15.53
2017-10-16T18:38:37.946Z,14.83
2017-10-16T18:41:07.102Z,13.30
2017-10-16T18:43:35.371Z,12.63
2017-10-16T18:46:03.618Z,13.37
2017-10-16T18:48:31.889Z,14.53
2017-10-16T18:51:00.146Z,14.20
2017-10-16T18:53:28.385Z,12.97
2017-10-16T18:55:56.825Z,14.40
2017-10-16T18:58:25.846Z,13.50
2017-10-16T19:00:54.114Z,15.00
2017-10-16T19:03:22.870Z,14.33
2017-10-16T19:05:51.893Z,14.53
2017-10-16T19:08:20.152Z,13.03
2017-10-16T19:10:48.418Z,13.20
2017-10-16T19:13:16.675Z,15.03
2017-10-16T19:15:44.936Z,14.67
2017-10-16T19:18:13.214Z,20.50
2017-10-16T19:20:41.945Z,14.87
2017-10-16T19:23:10.193Z,13.90
2017-10-16T19:25:38.553Z,13.50
2017-10-16T19:28:06.937Z,13.73
2017-10-16T19:30:35.180Z,14.17
2017-10-16T19:33:03.456Z,13.90
2017-10-16T19:35:31.706Z,12.70
2017-10-16T19:37:59.963Z,13.17
2017-10-16T19:40:28.240Z,12.70
2017-10-16T19:42:56.494Z,13.40
2017-10-16T19:45:24.746Z,13.47
2017-10-16T19:47:53.562Z,13.50
2017-10-16T19:50:21.790Z,14.60
2017-10-16T19:52:50.041Z,12.83
2017-10-16T19:55:18.322Z,13.37
2017-10-16T19:57:46.576Z,13.70
2017-10-16T20:00:14.826Z,13.27
2017-10-16T20:02:43.866Z,13.90
2017-10-16T20:05:12.314Z,13.00
2017-10-16T20:07:40.570Z,13.57
2017-10-16T20:10:09.155Z,14.70
2017-10-16T20:12:37.414Z,17.10
2017-10-16T20:15:05.842Z,13.47
2017-10-16T20:17:34.117Z,14.67
2017-10-16T20:20:02.378Z,15.20
2017-10-16T20:22:30.884Z,12.73
2017-10-16T20:24:59.167Z,13.47
2017-10-16T20:27:27.428Z,13.13
2017-10-16T20:29:55.680Z,14.73
2017-10-16T20:32:25.716Z,13.80
2017-10-16T20:34:53.958Z,15.30
2017-10-16T20:37:22.206Z,13.50
2017-10-16T20:39:51.326Z,12.87
2017-10-16T20:42:19.594Z,13.57
2017-10-16T20:44:48.603Z,14.97
2017-10-16T20:47:16.876Z,14.40
2017-10-16T20:49:45.133Z,13.93
2017-10-16T20:52:13.378Z,13.57
2017-10-16T20:54:41.950Z,14.37
2017-10-16T20:57:10.206Z,14.30
2017-10-16T20:59:38.454Z,13.50
2017-10-16T21:02:06.917Z,12.77
2017-10-16T21:04:35.931Z,12.27
2017-10-16T21:07:04.182Z,13.67
2017-10-16T21:09:32.458Z,11.90
2017-10-16T21:12:00.706Z,13.37
2017-10-16T21:14:28.972Z,13.20
2017-10-16T21:16:57.290Z,12.60
2017-10-16T21:19:25.544Z,13.30
2017-10-16T21:21:53.789Z,16.23
2017-10-16T21:24:22.669Z,14.93
2017-10-16T21:26:50.918Z,14.23
2017-10-16T21:29:19.184Z,16.90
2017-10-16T21:31:47.470Z,15.00
2017-10-16T21:34:16.491Z,13.73
2017-10-16T21:36:44.738Z,14.70
2017-10-16T21:39:13.417Z,14.27
2017-10-16T21:41:41.659Z,14.30
2017-10-16T21:44:09.901Z,15.33
2017-10-16T21:46:38.381Z,13.80
2017-10-16T21:49:07.395Z,14.43
2017-10-16T21:51:35.710Z,15.00
2017-10-16T21:54:03.982Z,13.83
2017-10-16T21:56:32.258Z,13.77
2017-10-16T21:59:00.653Z,14.27
2017-10-16T22:01:29.121Z,13.30
2017-10-16T22:03:57.378Z,13.43
2017-10-16T22:06:25.625Z,15.10
2017-10-16T22:08:53.901Z,13.80
2017-10-16T22:11:22.188Z,15.30
2017-10-16T22:13:50.434Z,14.13
2017-10-16T22:16:18.710Z,14.50
2017-10-16T22:18:46.961Z,12.10
2017-10-16T22:21:15.219Z,13.57
2017-10-16T22:23:43.661Z,14.33
2017-10-16T22:26:12.430Z,13.50
2017-10-16T22:28:40.704Z,13.57
2017-10-16T22:31:09.734Z,14.27
2017-10-16T22:33:37.999Z,13.40
2017-10-16T22:36:06.253Z,13.70
2017-10-16T22:38:35.307Z,12.83
2017-10-16T22:41:03.551Z,12.43
2017-10-16T22:43:31.796Z,13.13
2017-10-16T22:46:00.417Z,13.47
2017-10-16T22:48:48.354Z,13.33
2017-10-16T22:51:16.634Z,13.43
2017-10-16T22:53:44.891Z,14.10
2017-10-16T22:56:13.155Z,14.40
2017-10-16T22:58:41.430Z,14.73
2017-10-16T23:01:10.442Z,14.07
2017-10-16T23:03:38.721Z,14.00
2017-10-16T23:06:07.422Z,14.73
2017-10-16T23:08:35.679Z,14.57
2017-10-16T23:11:03.934Z,15.07
2017-10-16T23:13:32.985Z,16.23
2017-10-16T23:16:01.298Z,13.23
2017-10-16T23:18:30.326Z,14.50
2017-10-16T23:20:58.652Z,13.47
2017-10-16T23:23:26.902Z,14.30
2017-10-16T23:25:55.169Z,13.93
2017-10-16T23:28:24.286Z,14.07
2017-10-16T23:30:52.539Z,13.07
2017-10-16T23:33:20.806Z,15.17
2017-10-16T23:35:49.522Z,14.80
2017-10-16T23:38:17.855Z,15.80
2017-10-16T23:40:46.870Z,15.50
2017-10-16T23:43:15.141Z,15.87
2017-10-16T23:45:43.382Z,15.43
2017-10-16T23:48:11.637Z,17.37
2017-10-16T23:50:40.402Z,18.23
2017-10-16T23:53:08.661Z,18.23
2017-10-16T23:55:36.918Z,18.50
2017-10-16T23:58:05.193Z,19.17
